Schedule Details


Flight Number: CTN437
Departure: Munich (EDDM) at 21:15
Arrival: Franjo Tudman (LDZA) at 22:25
Route: ROTAX L603 LATLO DCT BERTA DCT ARGOM

Weather Information
EDDM 190920Z 24025KT 9999 FEW030 BKN040 07/M00 Q1018 TEMPO RA
LDZA 190900Z VRB01KT CAVOK 08/02 Q1022 NOSIG
Schedule Frequency

Route Map